Terminal Aerodrome Forecast
Issued by NWS Pocatello, ID

Home | Current Version | Previous Version | Text Only | Print | Product List | Glossary On
Versions: 1 2 3 4 5 6 7 8 9 10 11 12 13 14 15 16 17 18 19 20 21 22 23
329
FTUS45 KPIH 211732
TAFPIH
TAF
KPIH 211732Z 2118/2218 24010KT 6SM -SN SCT006 OVC008
     FM211900 24012G22KT P6SM VCSH OVC025
     FM212300 24010KT P6SM SCT015
     FM221000 18005KT 6SM BR SCT010 BKN025=

USA.gov is the U.S. government's official web portal to all federal, state and local government web resources and services.